Ertholm — OVJX — position and weather

sailwx.info

Track history (hours):
 
Tides and Currents Weather Stations Pressure Air Temp Water Temp Dewpoint Dewpoint Depression Visibility Wind Speed Wind Dir Waves Ship Positions

Ertholm

Last reported at 2015-Sep-04 11:33 UTC. Time now 2015-Sep-04 12:26 UTC.
Position N 55°19' E 015°11'.

Length 38 m; draft 2.3 m.

Type: Ship. MMSI: 219000751.

Date/timePositionNaut miles runAvg speedWind from/ knotsBaromVisibWave heightAir tempDewpointWater temp
2015-Sep-04 11:33N 55°19' E 015°11'9 9.4
2015-Sep-04 10:33N 55°13' E 014°59'7 7.5
2015-Sep-04 09:33N 55°18' E 015°09'2 1.6
2015-Sep-04 08:33N 55°17' E 015°06'6 6.3
2015-Sep-04 07:33N 55°13' E 014°58'0 0.0
2015-Sep-04 06:33N 55°13' E 014°58'0 0.0
2015-Sep-04 05:33N 55°13' E 014°58'0 0.0
2015-Sep-04 04:32N 55°13' E 014°58'0 0.0
2015-Sep-04 03:33N 55°13' E 014°58'0 0.0
2015-Sep-04 02:33N 55°13' E 014°58'0 0.0
2015-Sep-04 01:33N 55°13' E 014°58'0 0.0
2015-Sep-04 00:33N 55°13' E 014°58'0 0.0
2015-Sep-03 23:28N 55°13' E 014°58'0 0.0
2015-Sep-03 22:32N 55°13' E 014°58'0 0.0
2015-Sep-03 21:33N 55°13' E 014°58'0 0.0
2015-Sep-03 20:31N 55°13' E 014°58'0 0.0
2015-Sep-03 19:33N 55°13' E 014°58'0 0.0
2015-Sep-03 18:33N 55°13' E 014°58'0 0.0
2015-Sep-03 17:33N 55°13' E 014°58'0 0.0
2015-Sep-03 16:33N 55°13' E 014°58'0 0.0
2015-Sep-03 15:33N 55°13' E 014°58'7 6.6
2015-Sep-03 14:33N 55°17' E 015°07'2 1.6
2015-Sep-03 13:33N 55°16' E 015°05'1 1.0
2015-Sep-03 12:33N 55°15' E 015°03'6 5.8
2015-Sep-03 11:33N 55°19' E 015°11'9 9.5
2015-Sep-03 10:33N 55°13' E 014°59'6 6.4
2015-Sep-03 09:33N 55°17' E 015°07'1 0.8
2015-Sep-03 08:33N 55°17' E 015°06'6 6.1
2015-Sep-03 07:33N 55°13' E 014°58'0 0.0
2015-Sep-03 06:33N 55°13' E 014°58'0 0.0
2015-Sep-03 05:33N 55°13' E 014°58'0 0.0
2015-Sep-03 04:33N 55°13' E 014°58'0 0.0
2015-Sep-03 03:33N 55°13' E 014°58'0 0.0
2015-Sep-03 02:33N 55°13' E 014°58'0 0.0
2015-Sep-03 01:33N 55°13' E 014°58'0 0.0
2015-Sep-03 00:33N 55°13' E 014°58'0 0.0
2015-Sep-02 23:33N 55°13' E 014°58'0 0.0
2015-Sep-02 22:33N 55°13' E 014°58'0 0.0
2015-Sep-02 21:33N 55°13' E 014°58'0 0.0
2015-Sep-02 20:33N 55°13' E 014°58'0 0.0
2015-Sep-02 19:33N 55°13' E 014°58'0 0.0
2015-Sep-02 18:33N 55°13' E 014°58'0 0.0
2015-Sep-02 17:33N 55°13' E 014°58'0 0.0
2015-Sep-02 16:33N 55°13' E 014°58'0 0.0
2015-Sep-02 15:33N 55°13' E 014°58'8 8.2
2015-Sep-02 14:33N 55°19' E 015°09'7 6.7
2015-Sep-02 13:33N 55°14' E 015°00'4 3.5
2015-Sep-02 12:33N 55°15' E 015°06'5 5.2
2015-Sep-02 11:33N 55°19' E 015°11'10 9.6
2015-Sep-02 10:33N 55°13' E 014°58'7 7.1
2015-Sep-02 09:33N 55°17' E 015°08'4 4.0
2015-Sep-02 08:33N 55°18' E 015°01'5 5.1
2015-Sep-02 07:33N 55°13' E 014°58'0 0.0
2015-Sep-02 06:33N 55°13' E 014°58'0 0.0
2015-Sep-02 05:33N 55°13' E 014°58'0 0.0
2015-Sep-02 04:33N 55°13' E 014°58'0 0.0
2015-Sep-02 03:33N 55°13' E 014°58'0 0.0
2015-Sep-02 02:33N 55°13' E 014°58'0 0.0
2015-Sep-02 01:33N 55°13' E 014°58'0 0.0
2015-Sep-02 00:33N 55°13' E 014°58'0 0.0
2015-Sep-01 23:33N 55°13' E 014°58'0 0.0
2015-Sep-01 22:33N 55°13' E 014°58'0 0.0
2015-Sep-01 21:33N 55°13' E 014°58'0 0.0
2015-Sep-01 20:33N 55°13' E 014°58'0 0.0
2015-Sep-01 19:33N 55°13' E 014°58'0 0.0
2015-Sep-01 18:33N 55°13' E 014°58'0 0.0
2015-Sep-01 17:33N 55°13' E 014°58'0 0.0
2015-Sep-01 16:33N 55°13' E 014°58'0 0.0
2015-Sep-01 15:33N 55°13' E 014°58'7 6.9
2015-Sep-01 14:33N 55°17' E 015°07'3 2.7
2015-Sep-01 13:33N 55°16' E 015°04'0 0.0
2015-Sep-01 12:33N 55°16' E 015°04'6 5.6
2015-Sep-01 11:33N 55°19' E 015°11'10 9.6
2015-Sep-01 10:33N 55°13' E 014°59'5 5.4
2015-Sep-01 09:33N 55°16' E 015°06'0 0.5
2015-Sep-01 08:33N 55°17' E 015°06'6 6.1
2015-Sep-01 07:33N 55°13' E 014°58'2 2.0
2015-Sep-01 06:33N 55°14' E 014°55'3 0.3
2015-Aug-31 20:33N 55°15' E 014°50'0 0.0
2015-Aug-31 18:22N 55°15' E 014°50'0 0.0
2015-Aug-31 17:27N 55°15' E 014°50'0 0.0
2015-Aug-31 16:32N 55°15' E 014°50'1 1.4
2015-Aug-31 15:33N 55°15' E 014°53'8 8.5
2015-Aug-31 14:33N 55°17' E 015°07'3 2.5
2015-Aug-31 13:33N 55°16' E 015°04'0 0.3
2015-Aug-31 12:33N 55°16' E 015°03'6 5.9
2015-Aug-31 11:33N 55°19' E 015°11'10 9.6
2015-Aug-31 10:34N 55°13' E 014°59'6 6.4
2015-Aug-31 09:33N 55°17' E 015°07'0 0.5
2015-Aug-31 08:33N 55°17' E 015°06'6 6.2
2015-Aug-31 07:33N 55°13' E 014°58'0 0.0
2015-Aug-31 06:32N 55°13' E 014°58'0 0.0
2015-Aug-31 05:33N 55°13' E 014°58'0 0.0
2015-Aug-31 04:32N 55°13' E 014°58'0 0.0
2015-Aug-31 03:33N 55°13' E 014°58'0 0.0
2015-Aug-31 02:33N 55°13' E 014°58'0 0.0
2015-Aug-31 01:33N 55°13' E 014°58'0 0.0
2015-Aug-31 00:33N 55°13' E 014°58'0 0.0
2015-Aug-30 23:33N 55°13' E 014°58'0 0.0
2015-Aug-30 22:33N 55°13' E 014°58'0 0.0
2015-Aug-30 21:33N 55°13' E 014°58'0 0.0
2015-Aug-30 20:33N 55°13' E 014°58'0 0.0
2015-Aug-30 19:33N 55°13' E 014°58'0 0.0
2015-Aug-30 18:33N 55°13' E 014°58'0 0.0
2015-Aug-30 17:33N 55°13' E 014°58'0 0.0
2015-Aug-30 16:33N 55°13' E 014°58'0 0.0
2015-Aug-30 15:33N 55°13' E 014°58'0 0.0
2015-Aug-30 14:33N 55°13' E 014°58'0 0.0
2015-Aug-30 13:33N 55°13' E 014°58'4 3.7
2015-Aug-30 12:33N 55°15' E 015°03'6 6.1
2015-Aug-30 11:33N 55°19' E 015°11'0 0.0
2015-Aug-30 10:33N 55°19' E 015°11'0 0.0
2015-Aug-30 09:33N 55°19' E 015°11'4 3.7
2015-Aug-30 08:33N 55°17' E 015°06'6 6.2
2015-Aug-30 07:33N 55°13' E 014°58'0 0.0
2015-Aug-30 06:33N 55°13' E 014°58'0 0.0
2015-Aug-30 05:33N 55°13' E 014°58'0 0.0
2015-Aug-30 04:33N 55°13' E 014°58'0 0.0
2015-Aug-30 03:33N 55°13' E 014°58'0 0.0
2015-Aug-30 02:33N 55°13' E 014°58'0 0.0
2015-Aug-30 01:33N 55°13' E 014°58'0 0.0
2015-Aug-30 00:33N 55°13' E 014°58'0 0.0
2015-Aug-29 23:33N 55°13' E 014°58'0 0.0
2015-Aug-29 22:33N 55°13' E 014°58'0 0.0
2015-Aug-29 21:33N 55°13' E 014°58'0 0.0
2015-Aug-29 20:33N 55°13' E 014°58'0 0.0
2015-Aug-29 19:33N 55°13' E 014°58'0 0.0
2015-Aug-29 18:33N 55°13' E 014°58'0 0.0
2015-Aug-29 17:32N 55°13' E 014°58'0 0.0
2015-Aug-29 16:33N 55°13' E 014°58'0 0.0
2015-Aug-29 15:33N 55°13' E 014°58'0 0.0
2015-Aug-29 14:32N 55°13' E 014°58'0 0.0
2015-Aug-29 13:33N 55°13' E 014°58'4 4.5
2015-Aug-29 12:33N 55°15' E 015°05'5 5.4
2015-Aug-29 11:33N 55°19' E 015°11'0 0.0
2015-Aug-29 10:33N 55°19' E 015°11'0 0.0
2015-Aug-29 09:33N 55°19' E 015°11'5 4.9
2015-Aug-29 08:33N 55°18' E 015°03'6 5.7
2015-Aug-29 07:33N 55°13' E 014°58'0 0.0
2015-Aug-29 06:33N 55°13' E 014°58'0 0.0
2015-Aug-29 05:33N 55°13' E 014°58'0 0.0
2015-Aug-29 04:33N 55°13' E 014°58'0 0.0
2015-Aug-29 03:33N 55°13' E 014°58'0 0.0
2015-Aug-29 02:32N 55°13' E 014°58'0 0.0
2015-Aug-29 01:33N 55°13' E 014°58'0 0.0
2015-Aug-29 00:33N 55°13' E 014°58'0 0.0
2015-Aug-28 23:33N 55°13' E 014°58'0 0.0
2015-Aug-28 22:33N 55°13' E 014°58'0 0.0
2015-Aug-28 21:33N 55°13' E 014°58'0 0.0
2015-Aug-28 20:33N 55°13' E 014°58'0 0.0
2015-Aug-28 19:33N 55°13' E 014°58'0 0.0
2015-Aug-28 18:33N 55°13' E 014°58'0 0.0
2015-Aug-28 17:33N 55°13' E 014°58'0 0.0
2015-Aug-28 16:33N 55°13' E 014°58'0 0.0
2015-Aug-28 15:33N 55°13' E 014°58'7 7.4
2015-Aug-28 14:33N 55°17' E 015°09'4 4.3
2015-Aug-28 13:33N 55°16' E 015°01'3 2.5
2015-Aug-28 12:33N 55°15' E 015°05'6 5.8
2015-Aug-28 11:33N 55°19' E 015°11'10 9.7
2015-Aug-28 10:33N 55°13' E 014°58'8 7.7
2015-Aug-28 09:33N 55°18' E 015°08'5 4.6
2015-Aug-28 08:34N 55°17' E 015°00'5 4.6
2015-Aug-28 07:33N 55°13' E 014°58'0 0.0
2015-Aug-28 06:33N 55°13' E 014°58'0 0.0
2015-Aug-28 05:21N 55°13' E 014°58'0 0.0
2015-Aug-28 04:28N 55°13' E 014°58'0 0.0
2015-Aug-28 03:32N 55°13' E 014°58'0 0.0
2015-Aug-28 02:29N 55°13' E 014°58'0 0.0
2015-Aug-28 01:30N 55°13' E 014°58'0 0.0
2015-Aug-28 00:32N 55°13' E 014°58'0 0.0
2015-Aug-27 23:32N 55°13' E 014°58'0 0.0
2015-Aug-27 21:26N 55°13' E 014°58'0 0.0
2015-Aug-27 20:33N 55°13' E 014°58'0 0.0
2015-Aug-27 19:33N 55°13' E 014°58'0 0.0
2015-Aug-27 18:33N 55°13' E 014°58'0 0.0
2015-Aug-27 17:33N 55°13' E 014°58'0 0.0
2015-Aug-27 16:33N 55°13' E 014°58'0 0.0
2015-Aug-27 15:33N 55°13' E 014°58'7 6.9
2015-Aug-27 14:33N 55°17' E 015°07'2 2.2
2015-Aug-27 13:33N 55°16' E 015°04'1 0.7
2015-Aug-27 12:33N 55°16' E 015°03'6 5.8
2015-Aug-27 11:33N 55°19' E 015°11'9 9.5
2015-Aug-27 10:33N 55°13' E 014°59'6 6.0
2015-Aug-27 09:33N 55°17' E 015°06'2 1.7
2015-Aug-27 08:33N 55°15' E 015°07'6 5.8
2015-Aug-27 07:33N 55°13' E 014°58'0 0.0
2015-Aug-27 06:32N 55°13' E 014°58'0 0.0
2015-Aug-27 05:33N 55°13' E 014°58'0 0.0
2015-Aug-27 04:33N 55°13' E 014°58'0 0.0
2015-Aug-27 03:33N 55°13' E 014°58'0 0.0
2015-Aug-27 02:33N 55°13' E 014°58'0 0.0
2015-Aug-27 01:33N 55°13' E 014°58'0 0.0
2015-Aug-27 00:33N 55°13' E 014°58'0 0.0
2015-Aug-26 23:33N 55°13' E 014°58'0 0.0
2015-Aug-26 22:33N 55°13' E 014°58'0 0.0
2015-Aug-26 21:33N 55°13' E 014°58'0 0.0
2015-Aug-26 20:33N 55°13' E 014°58'0 0.0
2015-Aug-26 19:33N 55°13' E 014°58'0 0.0
2015-Aug-26 18:33N 55°13' E 014°58'0 0.0
2015-Aug-26 17:33N 55°13' E 014°58'0 0.0
2015-Aug-26 16:33N 55°13' E 014°58'0 0.0
2015-Aug-26 15:33N 55°13' E 014°58'7 7.0
2015-Aug-26 14:33N 55°18' E 015°07'3 2.8
2015-Aug-26 13:33N 55°16' E 015°04'1 0.5
2015-Aug-26 12:33N 55°15' E 015°03'6 6.1
2015-Aug-26 11:33N 55°19' E 015°11'10 9.7
2015-Aug-26 10:34N 55°13' E 014°59'7 7.0
2015-Aug-26 09:33N 55°18' E 015°08'3 2.8
2015-Aug-26 08:33N 55°15' E 015°08'6 5.6
2015-Aug-26 07:33N 55°13' E 014°58'0 0.0
2015-Aug-26 06:33N 55°13' E 014°58'0 0.0
2015-Aug-26 05:33N 55°13' E 014°58'0 0.0
2015-Aug-26 04:33N 55°13' E 014°58'0 0.0
2015-Aug-26 03:33N 55°13' E 014°58'0 0.0
2015-Aug-26 02:33N 55°13' E 014°58'0 0.0
2015-Aug-26 01:33N 55°13' E 014°58'0 0.0
2015-Aug-26 00:33N 55°13' E 014°58'0 0.0
2015-Aug-25 23:33N 55°13' E 014°58'0 0.0
2015-Aug-25 22:33N 55°13' E 014°58'0 0.0
2015-Aug-25 21:33N 55°13' E 014°58'0 0.0
2015-Aug-25 20:33N 55°13' E 014°58'0 0.0
2015-Aug-25 19:33N 55°13' E 014°58'0 0.0
2015-Aug-25 18:33N 55°13' E 014°58'0 0.0
2015-Aug-25 17:33N 55°13' E 014°58'0 0.0
2015-Aug-25 16:33N 55°13' E 014°58'0 0.0
2015-Aug-25 15:33N 55°13' E 014°58'7 7.0
2015-Aug-25 14:33N 55°17' E 015°07'3 2.9
2015-Aug-25 13:33N 55°15' E 015°03'1 1.1
2015-Aug-25 12:33N 55°16' E 015°04'  
Track history (hours):
 
Tides and Currents Weather Stations Pressure Air Temp Water Temp Dewpoint Dewpoint Depression Visibility Wind Speed Wind Dir Waves Ship Positions

Ertholm

Last reported at 2015-Sep-04 11:33 UTC. Time now 2015-Sep-04 12:26 UTC.
Position N 55°19' E 015°11'.

Length 38 m; draft 2.3 m.

Type: Ship. MMSI: 219000751.

Date/timePositionNaut miles runAvg speedWind from/ knotsBaromVisibWave heightAir tempDewpointWater temp
2015-Sep-04 11:33N 55°19' E 015°11'9 9.4
2015-Sep-04 10:33N 55°13' E 014°59'7 7.5
2015-Sep-04 09:33N 55°18' E 015°09'2 1.6
2015-Sep-04 08:33N 55°17' E 015°06'6 6.3
2015-Sep-04 07:33N 55°13' E 014°58'0 0.0
2015-Sep-04 06:33N 55°13' E 014°58'0 0.0
2015-Sep-04 05:33N 55°13' E 014°58'0 0.0
2015-Sep-04 04:32N 55°13' E 014°58'0 0.0
2015-Sep-04 03:33N 55°13' E 014°58'0 0.0
2015-Sep-04 02:33N 55°13' E 014°58'0 0.0
2015-Sep-04 01:33N 55°13' E 014°58'0 0.0
2015-Sep-04 00:33N 55°13' E 014°58'0 0.0
2015-Sep-03 23:28N 55°13' E 014°58'0 0.0
2015-Sep-03 22:32N 55°13' E 014°58'0 0.0
2015-Sep-03 21:33N 55°13' E 014°58'0 0.0
2015-Sep-03 20:31N 55°13' E 014°58'0 0.0
2015-Sep-03 19:33N 55°13' E 014°58'0 0.0
2015-Sep-03 18:33N 55°13' E 014°58'0 0.0
2015-Sep-03 17:33N 55°13' E 014°58'0 0.0
2015-Sep-03 16:33N 55°13' E 014°58'0 0.0
2015-Sep-03 15:33N 55°13' E 014°58'7 6.6
2015-Sep-03 14:33N 55°17' E 015°07'2 1.6
2015-Sep-03 13:33N 55°16' E 015°05'1 1.0
2015-Sep-03 12:33N 55°15' E 015°03'6 5.8
2015-Sep-03 11:33N 55°19' E 015°11'9 9.5
2015-Sep-03 10:33N 55°13' E 014°59'6 6.4
2015-Sep-03 09:33N 55°17' E 015°07'1 0.8
2015-Sep-03 08:33N 55°17' E 015°06'6 6.1
2015-Sep-03 07:33N 55°13' E 014°58'0 0.0
2015-Sep-03 06:33N 55°13' E 014°58'0 0.0
2015-Sep-03 05:33N 55°13' E 014°58'0 0.0
2015-Sep-03 04:33N 55°13' E 014°58'0 0.0
2015-Sep-03 03:33N 55°13' E 014°58'0 0.0
2015-Sep-03 02:33N 55°13' E 014°58'0 0.0
2015-Sep-03 01:33N 55°13' E 014°58'0 0.0
2015-Sep-03 00:33N 55°13' E 014°58'0 0.0
2015-Sep-02 23:33N 55°13' E 014°58'0 0.0
2015-Sep-02 22:33N 55°13' E 014°58'0 0.0
2015-Sep-02 21:33N 55°13' E 014°58'0 0.0
2015-Sep-02 20:33N 55°13' E 014°58'0 0.0
2015-Sep-02 19:33N 55°13' E 014°58'0 0.0
2015-Sep-02 18:33N 55°13' E 014°58'0 0.0
2015-Sep-02 17:33N 55°13' E 014°58'0 0.0
2015-Sep-02 16:33N 55°13' E 014°58'0 0.0
2015-Sep-02 15:33N 55°13' E 014°58'8 8.2
2015-Sep-02 14:33N 55°19' E 015°09'7 6.7
2015-Sep-02 13:33N 55°14' E 015°00'4 3.5
2015-Sep-02 12:33N 55°15' E 015°06'5 5.2
2015-Sep-02 11:33N 55°19' E 015°11'10 9.6
2015-Sep-02 10:33N 55°13' E 014°58'7 7.1
2015-Sep-02 09:33N 55°17' E 015°08'4 4.0
2015-Sep-02 08:33N 55°18' E 015°01'5 5.1
2015-Sep-02 07:33N 55°13' E 014°58'0 0.0
2015-Sep-02 06:33N 55°13' E 014°58'0 0.0
2015-Sep-02 05:33N 55°13' E 014°58'0 0.0
2015-Sep-02 04:33N 55°13' E 014°58'0 0.0
2015-Sep-02 03:33N 55°13' E 014°58'0 0.0
2015-Sep-02 02:33N 55°13' E 014°58'0 0.0
2015-Sep-02 01:33N 55°13' E 014°58'0 0.0
2015-Sep-02 00:33N 55°13' E 014°58'0 0.0
2015-Sep-01 23:33N 55°13' E 014°58'0 0.0
2015-Sep-01 22:33N 55°13' E 014°58'0 0.0
2015-Sep-01 21:33N 55°13' E 014°58'0 0.0
2015-Sep-01 20:33N 55°13' E 014°58'0 0.0
2015-Sep-01 19:33N 55°13' E 014°58'0 0.0
2015-Sep-01 18:33N 55°13' E 014°58'0 0.0
2015-Sep-01 17:33N 55°13' E 014°58'0 0.0
2015-Sep-01 16:33N 55°13' E 014°58'0 0.0
2015-Sep-01 15:33N 55°13' E 014°58'7 6.9
2015-Sep-01 14:33N 55°17' E 015°07'3 2.7
2015-Sep-01 13:33N 55°16' E 015°04'0 0.0
2015-Sep-01 12:33N 55°16' E 015°04'6 5.6
2015-Sep-01 11:33N 55°19' E 015°11'10 9.6
2015-Sep-01 10:33N 55°13' E 014°59'5 5.4
2015-Sep-01 09:33N 55°16' E 015°06'0 0.5
2015-Sep-01 08:33N 55°17' E 015°06'6 6.1
2015-Sep-01 07:33N 55°13' E 014°58'2 2.0
2015-Sep-01 06:33N 55°14' E 014°55'3 0.3
2015-Aug-31 20:33N 55°15' E 014°50'0 0.0
2015-Aug-31 18:22N 55°15' E 014°50'0 0.0
2015-Aug-31 17:27N 55°15' E 014°50'0 0.0
2015-Aug-31 16:32N 55°15' E 014°50'1 1.4
2015-Aug-31 15:33N 55°15' E 014°53'8 8.5
2015-Aug-31 14:33N 55°17' E 015°07'3 2.5
2015-Aug-31 13:33N 55°16' E 015°04'0 0.3
2015-Aug-31 12:33N 55°16' E 015°03'6 5.9
2015-Aug-31 11:33N 55°19' E 015°11'10 9.6
2015-Aug-31 10:34N 55°13' E 014°59'6 6.4
2015-Aug-31 09:33N 55°17' E 015°07'0 0.5
2015-Aug-31 08:33N 55°17' E 015°06'6 6.2
2015-Aug-31 07:33N 55°13' E 014°58'0 0.0
2015-Aug-31 06:32N 55°13' E 014°58'0 0.0
2015-Aug-31 05:33N 55°13' E 014°58'0 0.0
2015-Aug-31 04:32N 55°13' E 014°58'0 0.0
2015-Aug-31 03:33N 55°13' E 014°58'0 0.0
2015-Aug-31 02:33N 55°13' E 014°58'0 0.0
2015-Aug-31 01:33N 55°13' E 014°58'0 0.0
2015-Aug-31 00:33N 55°13' E 014°58'0 0.0
2015-Aug-30 23:33N 55°13' E 014°58'0 0.0
2015-Aug-30 22:33N 55°13' E 014°58'0 0.0
2015-Aug-30 21:33N 55°13' E 014°58'0 0.0
2015-Aug-30 20:33N 55°13' E 014°58'0 0.0
2015-Aug-30 19:33N 55°13' E 014°58'0 0.0
2015-Aug-30 18:33N 55°13' E 014°58'0 0.0
2015-Aug-30 17:33N 55°13' E 014°58'0 0.0
2015-Aug-30 16:33N 55°13' E 014°58'0 0.0
2015-Aug-30 15:33N 55°13' E 014°58'0 0.0
2015-Aug-30 14:33N 55°13' E 014°58'0 0.0
2015-Aug-30 13:33N 55°13' E 014°58'4 3.7
2015-Aug-30 12:33N 55°15' E 015°03'6 6.1
2015-Aug-30 11:33N 55°19' E 015°11'0 0.0
2015-Aug-30 10:33N 55°19' E 015°11'0 0.0
2015-Aug-30 09:33N 55°19' E 015°11'4 3.7
2015-Aug-30 08:33N 55°17' E 015°06'6 6.2
2015-Aug-30 07:33N 55°13' E 014°58'0 0.0
2015-Aug-30 06:33N 55°13' E 014°58'0 0.0
2015-Aug-30 05:33N 55°13' E 014°58'0 0.0
2015-Aug-30 04:33N 55°13' E 014°58'0 0.0
2015-Aug-30 03:33N 55°13' E 014°58'0 0.0
2015-Aug-30 02:33N 55°13' E 014°58'0 0.0
2015-Aug-30 01:33N 55°13' E 014°58'0 0.0
2015-Aug-30 00:33N 55°13' E 014°58'0 0.0
2015-Aug-29 23:33N 55°13' E 014°58'0 0.0
2015-Aug-29 22:33N 55°13' E 014°58'0 0.0
2015-Aug-29 21:33N 55°13' E 014°58'0 0.0
2015-Aug-29 20:33N 55°13' E 014°58'0 0.0
2015-Aug-29 19:33N 55°13' E 014°58'0 0.0
2015-Aug-29 18:33N 55°13' E 014°58'0 0.0
2015-Aug-29 17:32N 55°13' E 014°58'0 0.0
2015-Aug-29 16:33N 55°13' E 014°58'0 0.0
2015-Aug-29 15:33N 55°13' E 014°58'0 0.0
2015-Aug-29 14:32N 55°13' E 014°58'0 0.0
2015-Aug-29 13:33N 55°13' E 014°58'4 4.5
2015-Aug-29 12:33N 55°15' E 015°05'5 5.4
2015-Aug-29 11:33N 55°19' E 015°11'0 0.0
2015-Aug-29 10:33N 55°19' E 015°11'0 0.0
2015-Aug-29 09:33N 55°19' E 015°11'5 4.9
2015-Aug-29 08:33N 55°18' E 015°03'6 5.7
2015-Aug-29 07:33N 55°13' E 014°58'0 0.0
2015-Aug-29 06:33N 55°13' E 014°58'0 0.0
2015-Aug-29 05:33N 55°13' E 014°58'0 0.0
2015-Aug-29 04:33N 55°13' E 014°58'0 0.0
2015-Aug-29 03:33N 55°13' E 014°58'0 0.0
2015-Aug-29 02:32N 55°13' E 014°58'0 0.0
2015-Aug-29 01:33N 55°13' E 014°58'0 0.0
2015-Aug-29 00:33N 55°13' E 014°58'0 0.0
2015-Aug-28 23:33N 55°13' E 014°58'0 0.0
2015-Aug-28 22:33N 55°13' E 014°58'0 0.0
2015-Aug-28 21:33N 55°13' E 014°58'0 0.0
2015-Aug-28 20:33N 55°13' E 014°58'0 0.0
2015-Aug-28 19:33N 55°13' E 014°58'0 0.0
2015-Aug-28 18:33N 55°13' E 014°58'0 0.0
2015-Aug-28 17:33N 55°13' E 014°58'0 0.0
2015-Aug-28 16:33N 55°13' E 014°58'0 0.0
2015-Aug-28 15:33N 55°13' E 014°58'7 7.4
2015-Aug-28 14:33N 55°17' E 015°09'4 4.3
2015-Aug-28 13:33N 55°16' E 015°01'3 2.5
2015-Aug-28 12:33N 55°15' E 015°05'6 5.8
2015-Aug-28 11:33N 55°19' E 015°11'10 9.7
2015-Aug-28 10:33N 55°13' E 014°58'8 7.7
2015-Aug-28 09:33N 55°18' E 015°08'5 4.6
2015-Aug-28 08:34N 55°17' E 015°00'5 4.6
2015-Aug-28 07:33N 55°13' E 014°58'0 0.0
2015-Aug-28 06:33N 55°13' E 014°58'0 0.0
2015-Aug-28 05:21N 55°13' E 014°58'0 0.0
2015-Aug-28 04:28N 55°13' E 014°58'0 0.0
2015-Aug-28 03:32N 55°13' E 014°58'0 0.0
2015-Aug-28 02:29N 55°13' E 014°58'0 0.0
2015-Aug-28 01:30N 55°13' E 014°58'0 0.0
2015-Aug-28 00:32N 55°13' E 014°58'0 0.0
2015-Aug-27 23:32N 55°13' E 014°58'0 0.0
2015-Aug-27 21:26N 55°13' E 014°58'0 0.0
2015-Aug-27 20:33N 55°13' E 014°58'0 0.0
2015-Aug-27 19:33N 55°13' E 014°58'0 0.0
2015-Aug-27 18:33N 55°13' E 014°58'0 0.0
2015-Aug-27 17:33N 55°13' E 014°58'0 0.0
2015-Aug-27 16:33N 55°13' E 014°58'0 0.0
2015-Aug-27 15:33N 55°13' E 014°58'7 6.9
2015-Aug-27 14:33N 55°17' E 015°07'2 2.2
2015-Aug-27 13:33N 55°16' E 015°04'1 0.7
2015-Aug-27 12:33N 55°16' E 015°03'6 5.8
2015-Aug-27 11:33N 55°19' E 015°11'9 9.5
2015-Aug-27 10:33N 55°13' E 014°59'6 6.0
2015-Aug-27 09:33N 55°17' E 015°06'2 1.7
2015-Aug-27 08:33N 55°15' E 015°07'6 5.8
2015-Aug-27 07:33N 55°13' E 014°58'0 0.0
2015-Aug-27 06:32N 55°13' E 014°58'0 0.0
2015-Aug-27 05:33N 55°13' E 014°58'0 0.0
2015-Aug-27 04:33N 55°13' E 014°58'0 0.0
2015-Aug-27 03:33N 55°13' E 014°58'0 0.0
2015-Aug-27 02:33N 55°13' E 014°58'0 0.0
2015-Aug-27 01:33N 55°13' E 014°58'0 0.0
2015-Aug-27 00:33N 55°13' E 014°58'0 0.0
2015-Aug-26 23:33N 55°13' E 014°58'0 0.0
2015-Aug-26 22:33N 55°13' E 014°58'0 0.0
2015-Aug-26 21:33N 55°13' E 014°58'0 0.0
2015-Aug-26 20:33N 55°13' E 014°58'0 0.0
2015-Aug-26 19:33N 55°13' E 014°58'0 0.0
2015-Aug-26 18:33N 55°13' E 014°58'0 0.0
2015-Aug-26 17:33N 55°13' E 014°58'0 0.0
2015-Aug-26 16:33N 55°13' E 014°58'0 0.0
2015-Aug-26 15:33N 55°13' E 014°58'7 7.0
2015-Aug-26 14:33N 55°18' E 015°07'3 2.8
2015-Aug-26 13:33N 55°16' E 015°04'1 0.5
2015-Aug-26 12:33N 55°15' E 015°03'6 6.1
2015-Aug-26 11:33N 55°19' E 015°11'10 9.7
2015-Aug-26 10:34N 55°13' E 014°59'7 7.0
2015-Aug-26 09:33N 55°18' E 015°08'3 2.8
2015-Aug-26 08:33N 55°15' E 015°08'6 5.6
2015-Aug-26 07:33N 55°13' E 014°58'0 0.0
2015-Aug-26 06:33N 55°13' E 014°58'0 0.0
2015-Aug-26 05:33N 55°13' E 014°58'0 0.0
2015-Aug-26 04:33N 55°13' E 014°58'0 0.0
2015-Aug-26 03:33N 55°13' E 014°58'0 0.0
2015-Aug-26 02:33N 55°13' E 014°58'0 0.0
2015-Aug-26 01:33N 55°13' E 014°58'0 0.0
2015-Aug-26 00:33N 55°13' E 014°58'0 0.0
2015-Aug-25 23:33N 55°13' E 014°58'0 0.0
2015-Aug-25 22:33N 55°13' E 014°58'0 0.0
2015-Aug-25 21:33N 55°13' E 014°58'0 0.0
2015-Aug-25 20:33N 55°13' E 014°58'0 0.0
2015-Aug-25 19:33N 55°13' E 014°58'0 0.0
2015-Aug-25 18:33N 55°13' E 014°58'0 0.0
2015-Aug-25 17:33N 55°13' E 014°58'0 0.0
2015-Aug-25 16:33N 55°13' E 014°58'0 0.0
2015-Aug-25 15:33N 55°13' E 014°58'7 7.0
2015-Aug-25 14:33N 55°17' E 015°07'3 2.9
2015-Aug-25 13:33N 55°15' E 015°03'1 1.1
2015-Aug-25 12:33N 55°16' E 015°04'  

Dump ship's entire track history